sensor_id;sensor_type;location;lat;lon;timestamp;P1;durP1;ratioP1;P2;durP2;ratioP2
20185;SDS011;10252;48.792;8.582;2023-07-09T00:04:27;7.80;;;4.30;;
20185;SDS011;10252;48.792;8.582;2023-07-09T00:09:29;5.78;;;4.47;;
20185;SDS011;10252;48.792;8.582;2023-07-09T00:14:31;6.63;;;4.43;;
20185;SDS011;10252;48.792;8.582;2023-07-09T00:19:32;9.50;;;4.65;;
20185;SDS011;10252;48.792;8.582;2023-07-09T00:24:33;7.72;;;5.03;;
20185;SDS011;10252;48.792;8.582;2023-07-09T00:29:35;5.90;;;4.40;;
20185;SDS011;10252;48.792;8.582;2023-07-09T00:34:37;6.50;;;4.72;;
20185;SDS011;10252;48.792;8.582;2023-07-09T00:39:39;6.85;;;4.78;;
20185;SDS011;10252;48.792;8.582;2023-07-09T00:44:45;6.68;;;4.70;;
20185;SDS011;10252;48.792;8.582;2023-07-09T00:49:47;9.02;;;5.22;;
20185;SDS011;10252;48.792;8.582;2023-07-09T00:54:49;7.10;;;5.55;;
20185;SDS011;10252;48.792;8.582;2023-07-09T00:59:57;6.85;;;4.78;;
20185;SDS011;10252;48.792;8.582;2023-07-09T01:05:00;6.97;;;4.78;;
20185;SDS011;10252;48.792;8.582;2023-07-09T01:10:05;7.38;;;4.97;;
20185;SDS011;10252;48.792;8.582;2023-07-09T01:15:07;7.05;;;4.72;;
20185;SDS011;10252;48.792;8.582;2023-07-09T01:20:18;6.90;;;4.65;;
20185;SDS011;10252;48.792;8.582;2023-07-09T01:25:21;9.40;;;4.72;;
20185;SDS011;10252;48.792;8.582;2023-07-09T01:30:25;7.78;;;4.80;;
20185;SDS011;10252;48.792;8.582;2023-07-09T01:35:30;7.90;;;4.72;;
20185;SDS011;10252;48.792;8.582;2023-07-09T01:40:33;8.32;;;5.40;;
20185;SDS011;10252;48.792;8.582;2023-07-09T01:45:36;7.45;;;4.65;;
20185;SDS011;10252;48.792;8.582;2023-07-09T01:50:38;6.28;;;4.75;;
20185;SDS011;10252;48.792;8.582;2023-07-09T01:55:42;7.00;;;4.90;;
20185;SDS011;10252;48.792;8.582;2023-07-09T02:00:44;6.50;;;4.75;;
20185;SDS011;10252;48.792;8.582;2023-07-09T02:05:45;6.93;;;5.30;;
20185;SDS011;10252;48.792;8.582;2023-07-09T02:10:49;7.82;;;4.70;;
20185;SDS011;10252;48.792;8.582;2023-07-09T02:15:51;8.45;;;4.93;;
20185;SDS011;10252;48.792;8.582;2023-07-09T02:20:52;7.30;;;5.25;;
20185;SDS011;10252;48.792;8.582;2023-07-09T02:25:54;7.72;;;5.07;;
20185;SDS011;10252;48.792;8.582;2023-07-09T02:30:55;6.65;;;4.97;;
20185;SDS011;10252;48.792;8.582;2023-07-09T02:35:57;7.85;;;5.03;;
20185;SDS011;10252;48.792;8.582;2023-07-09T02:40:58;6.35;;;4.97;;
20185;SDS011;10252;48.792;8.582;2023-07-09T02:46:01;6.63;;;5.05;;
20185;SDS011;10252;48.792;8.582;2023-07-09T02:51:03;7.47;;;5.43;;
20185;SDS011;10252;48.792;8.582;2023-07-09T02:56:05;6.13;;;4.75;;
20185;SDS011;10252;48.792;8.582;2023-07-09T03:01:06;7.57;;;5.05;;
20185;SDS011;10252;48.792;8.582;2023-07-09T03:06:08;7.53;;;5.25;;
20185;SDS011;10252;48.792;8.582;2023-07-09T03:11:11;7.13;;;5.13;;
20185;SDS011;10252;48.792;8.582;2023-07-09T03:16:14;7.35;;;4.88;;
20185;SDS011;10252;48.792;8.582;2023-07-09T03:21:15;9.05;;;5.32;;
20185;SDS011;10252;48.792;8.582;2023-07-09T03:26:17;7.88;;;5.13;;
20185;SDS011;10252;48.792;8.582;2023-07-09T03:31:18;7.22;;;5.35;;
20185;SDS011;10252;48.792;8.582;2023-07-09T03:36:20;8.77;;;5.45;;
20185;SDS011;10252;48.792;8.582;2023-07-09T03:41:21;8.13;;;5.47;;
20185;SDS011;10252;48.792;8.582;2023-07-09T03:46:23;6.95;;;5.53;;
20185;SDS011;10252;48.792;8.582;2023-07-09T03:51:24;7.65;;;5.50;;
20185;SDS011;10252;48.792;8.582;2023-07-09T03:56:25;11.38;;;5.90;;
20185;SDS011;10252;48.792;8.582;2023-07-09T04:01:27;7.50;;;5.97;;
20185;SDS011;10252;48.792;8.582;2023-07-09T04:06:29;7.65;;;5.85;;
20185;SDS011;10252;48.792;8.582;2023-07-09T04:11:30;8.73;;;5.68;;
20185;SDS011;10252;48.792;8.582;2023-07-09T04:16:32;9.57;;;5.82;;
20185;SDS011;10252;48.792;8.582;2023-07-09T04:21:33;8.73;;;5.70;;
20185;SDS011;10252;48.792;8.582;2023-07-09T04:26:35;6.32;;;5.38;;
20185;SDS011;10252;48.792;8.582;2023-07-09T04:31:39;9.70;;;5.15;;
20185;SDS011;10252;48.792;8.582;2023-07-09T04:36:41;8.60;;;5.20;;
20185;SDS011;10252;48.792;8.582;2023-07-09T04:41:43;8.13;;;5.47;;
20185;SDS011;10252;48.792;8.582;2023-07-09T04:46:44;8.30;;;5.22;;
20185;SDS011;10252;48.792;8.582;2023-07-09T04:51:46;6.75;;;5.07;;
20185;SDS011;10252;48.792;8.582;2023-07-09T04:56:47;7.32;;;5.68;;
20185;SDS011;10252;48.792;8.582;2023-07-09T05:01:49;8.27;;;5.85;;
20185;SDS011;10252;48.792;8.582;2023-07-09T05:06:51;7.20;;;5.28;;
20185;SDS011;10252;48.792;8.582;2023-07-09T05:11:52;7.35;;;6.15;;
20185;SDS011;10252;48.792;8.582;2023-07-09T05:16:54;6.45;;;5.18;;
20185;SDS011;10252;48.792;8.582;2023-07-09T05:21:55;8.80;;;5.55;;
20185;SDS011;10252;48.792;8.582;2023-07-09T05:26:57;8.15;;;5.53;;
20185;SDS011;10252;48.792;8.582;2023-07-09T05:31:58;7.90;;;5.03;;
20185;SDS011;10252;48.792;8.582;2023-07-09T05:37:00;5.63;;;4.68;;
20185;SDS011;10252;48.792;8.582;2023-07-09T05:42:01;7.38;;;5.32;;
20185;SDS011;10252;48.792;8.582;2023-07-09T05:47:03;7.30;;;5.63;;
20185;SDS011;10252;48.792;8.582;2023-07-09T05:52:04;6.65;;;4.95;;
20185;SDS011;10252;48.792;8.582;2023-07-09T05:57:06;7.80;;;5.32;;
20185;SDS011;10252;48.792;8.582;2023-07-09T06:02:15;10.60;;;5.85;;
20185;SDS011;10252;48.792;8.582;2023-07-09T06:07:17;6.07;;;5.03;;
20185;SDS011;10252;48.792;8.582;2023-07-09T06:12:21;7.00;;;5.03;;
20185;SDS011;10252;48.792;8.582;2023-07-09T06:17:23;5.93;;;4.55;;
20185;SDS011;10252;48.792;8.582;2023-07-09T06:22:24;5.88;;;4.97;;
20185;SDS011;10252;48.792;8.582;2023-07-09T06:27:26;9.55;;;4.80;;
20185;SDS011;10252;48.792;8.582;2023-07-09T06:32:28;6.75;;;4.30;;
20185;SDS011;10252;48.792;8.582;2023-07-09T06:37:29;5.75;;;4.45;;
20185;SDS011;10252;48.792;8.582;2023-07-09T06:42:30;4.70;;;4.18;;
20185;SDS011;10252;48.792;8.582;2023-07-09T06:47:45;7.03;;;4.40;;
20185;SDS011;10252;48.792;8.582;2023-07-09T06:52:46;6.28;;;4.72;;
20185;SDS011;10252;48.792;8.582;2023-07-09T06:57:48;6.50;;;4.97;;
20185;SDS011;10252;48.792;8.582;2023-07-09T07:02:49;5.32;;;4.20;;
20185;SDS011;10252;48.792;8.582;2023-07-09T07:07:51;5.80;;;4.40;;
20185;SDS011;10252;48.792;8.582;2023-07-09T07:12:54;7.63;;;3.90;;
20185;SDS011;10252;48.792;8.582;2023-07-09T07:17:55;4.22;;;3.70;;
20185;SDS011;10252;48.792;8.582;2023-07-09T07:22:58;4.90;;;4.13;;
20185;SDS011;10252;48.792;8.582;2023-07-09T07:27:59;7.35;;;4.40;;
20185;SDS011;10252;48.792;8.582;2023-07-09T07:33:00;4.72;;;3.85;;
20185;SDS011;10252;48.792;8.582;2023-07-09T07:38:02;6.38;;;3.67;;
20185;SDS011;10252;48.792;8.582;2023-07-09T07:43:03;5.22;;;4.55;;
20185;SDS011;10252;48.792;8.582;2023-07-09T07:48:05;5.85;;;4.20;;
20185;SDS011;10252;48.792;8.582;2023-07-09T07:53:07;5.75;;;4.07;;
20185;SDS011;10252;48.792;8.582;2023-07-09T07:58:10;5.22;;;4.32;;
20185;SDS011;10252;48.792;8.582;2023-07-09T08:03:13;6.70;;;4.15;;
20185;SDS011;10252;48.792;8.582;2023-07-09T08:08:14;5.03;;;4.07;;
20185;SDS011;10252;48.792;8.582;2023-07-09T08:13:16;6.13;;;4.60;;
20185;SDS011;10252;48.792;8.582;2023-07-09T08:18:17;4.85;;;3.95;;
20185;SDS011;10252;48.792;8.582;2023-07-09T08:23:19;3.85;;;3.53;;
20185;SDS011;10252;48.792;8.582;2023-07-09T08:28:20;5.13;;;4.22;;
20185;SDS011;10252;48.792;8.582;2023-07-09T08:33:22;4.60;;;4.00;;
20185;SDS011;10252;48.792;8.582;2023-07-09T08:38:24;6.57;;;4.53;;
20185;SDS011;10252;48.792;8.582;2023-07-09T08:48:29;4.70;;;4.00;;
20185;SDS011;10252;48.792;8.582;2023-07-09T08:53:34;5.88;;;4.05;;
20185;SDS011;10252;48.792;8.582;2023-07-09T08:58:37;9.13;;;4.20;;
20185;SDS011;10252;48.792;8.582;2023-07-09T09:03:44;5.60;;;4.18;;
20185;SDS011;10252;48.792;8.582;2023-07-09T09:13:56;5.85;;;3.58;;
20185;SDS011;10252;48.792;8.582;2023-07-09T09:18:59;5.85;;;3.97;;
20185;SDS011;10252;48.792;8.582;2023-07-09T09:29:35;4.10;;;3.65;;
20185;SDS011;10252;48.792;8.582;2023-07-09T09:34:37;4.63;;;3.08;;
20185;SDS011;10252;48.792;8.582;2023-07-09T09:39:38;3.92;;;3.42;;
20185;SDS011;10252;48.792;8.582;2023-07-09T09:44:44;6.03;;;3.60;;
20185;SDS011;10252;48.792;8.582;2023-07-09T09:49:46;3.75;;;3.25;;
20185;SDS011;10252;48.792;8.582;2023-07-09T09:54:54;5.25;;;3.47;;
20185;SDS011;10252;48.792;8.582;2023-07-09T09:59:57;4.15;;;3.47;;
20185;SDS011;10252;48.792;8.582;2023-07-09T10:04:59;5.20;;;3.50;;
20185;SDS011;10252;48.792;8.582;2023-07-09T10:10:01;9.95;;;3.55;;
20185;SDS011;10252;48.792;8.582;2023-07-09T10:20:15;4.43;;;3.60;;
20185;SDS011;10252;48.792;8.582;2023-07-09T10:25:23;5.47;;;3.33;;
20185;SDS011;10252;48.792;8.582;2023-07-09T10:41:11;5.47;;;3.63;;
20185;SDS011;10252;48.792;8.582;2023-07-09T10:46:15;4.45;;;3.38;;
20185;SDS011;10252;48.792;8.582;2023-07-09T10:51:28;4.22;;;3.75;;
20185;SDS011;10252;48.792;8.582;2023-07-09T10:56:31;5.25;;;3.58;;
20185;SDS011;10252;48.792;8.582;2023-07-09T11:01:37;5.35;;;3.55;;
20185;SDS011;10252;48.792;8.582;2023-07-09T11:06:45;4.95;;;3.50;;
20185;SDS011;10252;48.792;8.582;2023-07-09T11:11:49;4.70;;;3.40;;
20185;SDS011;10252;48.792;8.582;2023-07-09T11:16:52;6.40;;;3.90;;
20185;SDS011;10252;48.792;8.582;2023-07-09T11:27:02;7.15;;;3.63;;
20185;SDS011;10252;48.792;8.582;2023-07-09T11:32:07;4.40;;;3.42;;
20185;SDS011;10252;48.792;8.582;2023-07-09T11:37:11;5.20;;;3.38;;
20185;SDS011;10252;48.792;8.582;2023-07-09T11:42:32;4.88;;;2.95;;
20185;SDS011;10252;48.792;8.582;2023-07-09T11:47:36;3.88;;;3.08;;
20185;SDS011;10252;48.792;8.582;2023-07-09T11:52:50;5.60;;;2.90;;
20185;SDS011;10252;48.792;8.582;2023-07-09T11:57:54;3.72;;;2.65;;
20185;SDS011;10252;48.792;8.582;2023-07-09T12:02:56;3.60;;;2.75;;
20185;SDS011;10252;48.792;8.582;2023-07-09T12:07:58;4.82;;;3.03;;
20185;SDS011;10252;48.792;8.582;2023-07-09T12:13:00;6.07;;;3.08;;
20185;SDS011;10252;48.792;8.582;2023-07-09T12:18:09;3.83;;;3.30;;
20185;SDS011;10252;48.792;8.582;2023-07-09T12:28:22;5.05;;;4.10;;
20185;SDS011;10252;48.792;8.582;2023-07-09T12:33:25;4.05;;;2.60;;
20185;SDS011;10252;48.792;8.582;2023-07-09T12:38:30;4.85;;;3.33;;
20185;SDS011;10252;48.792;8.582;2023-07-09T12:43:33;5.55;;;2.70;;
20185;SDS011;10252;48.792;8.582;2023-07-09T12:48:35;4.43;;;3.20;;
20185;SDS011;10252;48.792;8.582;2023-07-09T12:53:36;6.53;;;3.38;;
20185;SDS011;10252;48.792;8.582;2023-07-09T12:58:38;5.38;;;3.35;;
20185;SDS011;10252;48.792;8.582;2023-07-09T13:03:39;4.00;;;3.33;;
20185;SDS011;10252;48.792;8.582;2023-07-09T13:08:42;7.18;;;3.60;;
20185;SDS011;10252;48.792;8.582;2023-07-09T13:13:58;6.07;;;4.03;;
20185;SDS011;10252;48.792;8.582;2023-07-09T13:18:59;3.63;;;3.33;;
20185;SDS011;10252;48.792;8.582;2023-07-09T13:24:04;5.00;;;3.00;;
20185;SDS011;10252;48.792;8.582;2023-07-09T13:29:11;5.18;;;3.83;;
20185;SDS011;10252;48.792;8.582;2023-07-09T13:34:18;4.30;;;3.10;;
20185;SDS011;10252;48.792;8.582;2023-07-09T13:39:20;6.57;;;3.35;;
20185;SDS011;10252;48.792;8.582;2023-07-09T13:44:24;3.83;;;3.40;;
20185;SDS011;10252;48.792;8.582;2023-07-09T13:49:26;3.78;;;3.42;;
20185;SDS011;10252;48.792;8.582;2023-07-09T13:54:29;4.97;;;3.63;;
20185;SDS011;10252;48.792;8.582;2023-07-09T13:59:38;6.43;;;3.55;;
20185;SDS011;10252;48.792;8.582;2023-07-09T14:04:41;6.75;;;3.67;;
20185;SDS011;10252;48.792;8.582;2023-07-09T14:09:42;5.93;;;3.72;;
20185;SDS011;10252;48.792;8.582;2023-07-09T14:14:44;7.25;;;3.60;;
20185;SDS011;10252;48.792;8.582;2023-07-09T14:19:46;3.90;;;3.00;;
20185;SDS011;10252;48.792;8.582;2023-07-09T14:24:47;5.97;;;3.17;;
20185;SDS011;10252;48.792;8.582;2023-07-09T14:29:48;5.40;;;3.85;;
20185;SDS011;10252;48.792;8.582;2023-07-09T14:34:50;8.43;;;4.30;;
20185;SDS011;10252;48.792;8.582;2023-07-09T14:39:51;5.70;;;3.80;;
20185;SDS011;10252;48.792;8.582;2023-07-09T14:44:53;7.97;;;4.00;;
20185;SDS011;10252;48.792;8.582;2023-07-09T14:49:54;5.10;;;3.35;;
20185;SDS011;10252;48.792;8.582;2023-07-09T14:54:55;5.55;;;3.70;;
20185;SDS011;10252;48.792;8.582;2023-07-09T14:59:57;8.10;;;3.67;;
20185;SDS011;10252;48.792;8.582;2023-07-09T15:05:00;5.45;;;3.45;;
20185;SDS011;10252;48.792;8.582;2023-07-09T15:10:01;3.83;;;3.40;;
20185;SDS011;10252;48.792;8.582;2023-07-09T15:20:16;5.75;;;3.97;;
20185;SDS011;10252;48.792;8.582;2023-07-09T15:25:19;7.10;;;4.38;;
20185;SDS011;10252;48.792;8.582;2023-07-09T15:30:22;10.32;;;5.28;;
20185;SDS011;10252;48.792;8.582;2023-07-09T15:35:25;5.20;;;4.18;;
20185;SDS011;10252;48.792;8.582;2023-07-09T15:40:28;4.35;;;3.95;;
20185;SDS011;10252;48.792;8.582;2023-07-09T15:45:29;5.35;;;4.40;;
20185;SDS011;10252;48.792;8.582;2023-07-09T15:50:31;4.72;;;4.18;;
20185;SDS011;10252;48.792;8.582;2023-07-09T15:55:34;7.75;;;4.28;;
20185;SDS011;10252;48.792;8.582;2023-07-09T16:00:36;6.03;;;3.70;;
20185;SDS011;10252;48.792;8.582;2023-07-09T16:05:38;4.50;;;4.10;;
20185;SDS011;10252;48.792;8.582;2023-07-09T16:10:39;5.47;;;3.90;;
20185;SDS011;10252;48.792;8.582;2023-07-09T16:15:41;7.43;;;4.68;;
20185;SDS011;10252;48.792;8.582;2023-07-09T16:20:42;13.77;;;11.48;;
20185;SDS011;10252;48.792;8.582;2023-07-09T16:25:44;7.13;;;6.30;;
20185;SDS011;10252;48.792;8.582;2023-07-09T16:30:46;8.20;;;4.90;;
20185;SDS011;10252;48.792;8.582;2023-07-09T16:35:49;6.85;;;5.50;;
20185;SDS011;10252;48.792;8.582;2023-07-09T16:40:51;8.20;;;5.70;;
20185;SDS011;10252;48.792;8.582;2023-07-09T16:45:53;6.75;;;4.32;;
20185;SDS011;10252;48.792;8.582;2023-07-09T16:50:54;7.43;;;5.10;;
20185;SDS011;10252;48.792;8.582;2023-07-09T16:55:57;8.48;;;5.00;;
20185;SDS011;10252;48.792;8.582;2023-07-09T17:00:58;6.70;;;5.47;;
20185;SDS011;10252;48.792;8.582;2023-07-09T17:06:00;5.70;;;4.50;;
20185;SDS011;10252;48.792;8.582;2023-07-09T17:11:02;5.95;;;4.70;;
20185;SDS011;10252;48.792;8.582;2023-07-09T17:16:04;5.18;;;4.35;;
20185;SDS011;10252;48.792;8.582;2023-07-09T17:21:05;6.60;;;4.25;;
20185;SDS011;10252;48.792;8.582;2023-07-09T17:26:07;6.75;;;4.88;;
20185;SDS011;10252;48.792;8.582;2023-07-09T17:31:08;5.82;;;4.88;;
20185;SDS011;10252;48.792;8.582;2023-07-09T17:36:12;7.85;;;6.13;;
20185;SDS011;10252;48.792;8.582;2023-07-09T17:41:14;8.07;;;5.47;;
20185;SDS011;10252;48.792;8.582;2023-07-09T17:46:15;7.47;;;4.60;;
20185;SDS011;10252;48.792;8.582;2023-07-09T17:51:17;6.85;;;4.95;;
20185;SDS011;10252;48.792;8.582;2023-07-09T17:56:20;5.80;;;4.75;;
20185;SDS011;10252;48.792;8.582;2023-07-09T18:01:23;8.75;;;5.15;;
20185;SDS011;10252;48.792;8.582;2023-07-09T18:06:26;7.13;;;5.15;;
20185;SDS011;10252;48.792;8.582;2023-07-09T18:11:28;7.97;;;5.18;;
20185;SDS011;10252;48.792;8.582;2023-07-09T18:16:29;6.82;;;4.93;;
20185;SDS011;10252;48.792;8.582;2023-07-09T18:21:31;5.25;;;4.75;;
20185;SDS011;10252;48.792;8.582;2023-07-09T18:26:32;6.40;;;4.97;;
20185;SDS011;10252;48.792;8.582;2023-07-09T18:31:33;7.32;;;5.88;;
20185;SDS011;10252;48.792;8.582;2023-07-09T18:36:35;8.43;;;5.38;;
20185;SDS011;10252;48.792;8.582;2023-07-09T18:41:37;8.07;;;5.32;;
20185;SDS011;10252;48.792;8.582;2023-07-09T18:46:39;6.88;;;5.20;;
20185;SDS011;10252;48.792;8.582;2023-07-09T18:51:41;7.25;;;5.70;;
20185;SDS011;10252;48.792;8.582;2023-07-09T18:56:46;7.90;;;6.03;;
20185;SDS011;10252;48.792;8.582;2023-07-09T19:01:48;6.13;;;5.22;;
20185;SDS011;10252;48.792;8.582;2023-07-09T19:06:50;5.78;;;5.10;;
20185;SDS011;10252;48.792;8.582;2023-07-09T19:11:51;7.25;;;5.70;;
20185;SDS011;10252;48.792;8.582;2023-07-09T19:16:54;8.23;;;5.57;;
20185;SDS011;10252;48.792;8.582;2023-07-09T19:21:57;7.57;;;5.80;;
20185;SDS011;10252;48.792;8.582;2023-07-09T19:26:59;8.35;;;5.28;;
20185;SDS011;10252;48.792;8.582;2023-07-09T19:32:02;8.55;;;5.38;;
20185;SDS011;10252;48.792;8.582;2023-07-09T19:37:09;7.07;;;4.80;;
20185;SDS011;10252;48.792;8.582;2023-07-09T19:42:15;6.55;;;4.82;;
20185;SDS011;10252;48.792;8.582;2023-07-09T19:47:22;7.95;;;5.10;;
20185;SDS011;10252;48.792;8.582;2023-07-09T19:52:24;5.85;;;4.68;;
20185;SDS011;10252;48.792;8.582;2023-07-09T19:57:25;6.00;;;4.40;;
20185;SDS011;10252;48.792;8.582;2023-07-09T20:02:27;8.80;;;5.70;;
20185;SDS011;10252;48.792;8.582;2023-07-09T20:07:29;8.10;;;5.13;;
20185;SDS011;10252;48.792;8.582;2023-07-09T20:12:32;6.00;;;4.97;;
20185;SDS011;10252;48.792;8.582;2023-07-09T20:17:34;7.25;;;4.57;;
20185;SDS011;10252;48.792;8.582;2023-07-09T20:22:36;8.00;;;5.40;;
20185;SDS011;10252;48.792;8.582;2023-07-09T20:27:37;7.95;;;5.82;;
20185;SDS011;10252;48.792;8.582;2023-07-09T20:32:39;7.53;;;5.20;;
20185;SDS011;10252;48.792;8.582;2023-07-09T20:37:41;9.63;;;5.38;;
20185;SDS011;10252;48.792;8.582;2023-07-09T20:42:43;6.85;;;5.50;;
20185;SDS011;10252;48.792;8.582;2023-07-09T20:47:46;7.95;;;5.63;;
20185;SDS011;10252;48.792;8.582;2023-07-09T20:52:48;7.30;;;5.63;;
20185;SDS011;10252;48.792;8.582;2023-07-09T20:57:50;7.13;;;5.93;;
20185;SDS011;10252;48.792;8.582;2023-07-09T21:02:52;8.27;;;5.95;;
20185;SDS011;10252;48.792;8.582;2023-07-09T21:07:53;7.57;;;6.38;;
20185;SDS011;10252;48.792;8.582;2023-07-09T21:12:55;8.48;;;5.80;;
20185;SDS011;10252;48.792;8.582;2023-07-09T21:17:57;8.10;;;5.88;;
20185;SDS011;10252;48.792;8.582;2023-07-09T21:22:59;7.50;;;6.22;;
20185;SDS011;10252;48.792;8.582;2023-07-09T21:28:01;8.13;;;6.25;;
20185;SDS011;10252;48.792;8.582;2023-07-09T21:33:02;7.20;;;5.80;;
20185;SDS011;10252;48.792;8.582;2023-07-09T21:38:04;7.47;;;6.20;;
20185;SDS011;10252;48.792;8.582;2023-07-09T21:43:10;10.13;;;6.80;;
20185;SDS011;10252;48.792;8.582;2023-07-09T21:48:26;7.28;;;5.75;;
20185;SDS011;10252;48.792;8.582;2023-07-09T21:53:28;6.78;;;5.95;;
20185;SDS011;10252;48.792;8.582;2023-07-09T21:58:30;10.13;;;6.50;;
20185;SDS011;10252;48.792;8.582;2023-07-09T22:03:33;7.93;;;6.45;;
20185;SDS011;10252;48.792;8.582;2023-07-09T22:08:34;8.02;;;6.47;;
20185;SDS011;10252;48.792;8.582;2023-07-09T22:13:36;8.57;;;5.65;;
20185;SDS011;10252;48.792;8.582;2023-07-09T22:18:38;9.90;;;6.40;;
20185;SDS011;10252;48.792;8.582;2023-07-09T22:23:40;7.95;;;7.10;;
20185;SDS011;10252;48.792;8.582;2023-07-09T22:28:41;8.45;;;6.47;;
20185;SDS011;10252;48.792;8.582;2023-07-09T22:33:43;8.93;;;6.80;;
20185;SDS011;10252;48.792;8.582;2023-07-09T22:38:44;7.53;;;6.32;;
20185;SDS011;10252;48.792;8.582;2023-07-09T22:43:46;9.10;;;7.10;;
20185;SDS011;10252;48.792;8.582;2023-07-09T22:48:49;8.32;;;6.63;;
20185;SDS011;10252;48.792;8.582;2023-07-09T22:53:52;7.60;;;6.60;;
20185;SDS011;10252;48.792;8.582;2023-07-09T22:58:54;8.68;;;6.85;;
20185;SDS011;10252;48.792;8.582;2023-07-09T23:03:55;7.97;;;6.53;;
20185;SDS011;10252;48.792;8.582;2023-07-09T23:08:57;7.90;;;7.13;;
20185;SDS011;10252;48.792;8.582;2023-07-09T23:13:59;7.35;;;6.30;;
20185;SDS011;10252;48.792;8.582;2023-07-09T23:19:01;7.53;;;6.82;;
20185;SDS011;10252;48.792;8.582;2023-07-09T23:24:12;8.50;;;6.28;;
20185;SDS011;10252;48.792;8.582;2023-07-09T23:29:14;7.35;;;6.47;;
20185;SDS011;10252;48.792;8.582;2023-07-09T23:34:18;6.97;;;6.28;;
20185;SDS011;10252;48.792;8.582;2023-07-09T23:39:20;9.02;;;6.72;;
20185;SDS011;10252;48.792;8.582;2023-07-09T23:44:26;7.55;;;6.18;;
20185;SDS011;10252;48.792;8.582;2023-07-09T23:49:32;8.13;;;6.80;;
20185;SDS011;10252;48.792;8.582;2023-07-09T23:54:34;9.75;;;7.18;;
20185;SDS011;10252;48.792;8.582;2023-07-09T23:59:35;7.28;;;6.35;;
